Columbia Falls, MT

11:19 PM MDT on September 22, 2014 (GMT -0600)
Cut Bank Municipal | Change Station
CLOSE
Current Station
Airport
Location: Cut Bank,
Elevation: 3855 ft
Nearby Weather Stations

Elev 3855 ft 48.61 °N, 112.38 °W | Updated 23 minutes ago

Clear
Clear
61 °F
Feels Like 61 °F
N
13
Wind Variable Wind from WNW

Today
High -- | Low -- °F
--% Chance of Precip.
Yesterday
High -- | Low -- °F
Precip. -- in
7:23 AM 7:34 PM
Waning Crescent, 1% visible
Pressure 29.85 in
Visibility 10.0 miles
Clouds Clear
Dew Point 44 °F
Humidity 54%
Rainfall 0.00 in
Snow Depth 0 in , 0 in , 0 in
UV 0 out of 12
Pollen 2.10 out of 12
Air Quality Not available.
Flu Activity Not available.
METAR KCTB 230456Z AUTO 29011KT 10SM CLR 16/07 A2992 RMK AO2 SLP107 T01610067

More Conditions Fewer Conditions

Pressure 29.85 in
Visibility 10.0 miles
Clouds Clear
Dew Point 44 °F
Humidity 54%
Rainfall 0.00 in
Snow Depth 0 in , 0 in , 0 in
UV 0 out of 12
Pollen 2.10 out of 12
Air Quality Not available.
Flu Activity Not available.
METAR KCTB 230456Z AUTO 29011KT 10SM CLR 16/07 A2992 RMK AO2 SLP107 T01610067

More Conditions Fewer Conditions

10-Day Weather Forecast

Almanac

Astronomy

Sep. 22, 2014 Rise Set
Actual Time 7:23 AM MDT 7:34 PM MDT
Civil Twilight 6:52 AM MDT 8:05 PM MDT
Nautical Twilight 6:15 AM MDT 8:42 PM MDT
Astronomical Twilight 5:37 AM MDT 9:20 PM MDT
Moon 5:51 AM MDT (9/22) 6:46 PM MDT (9/22)
Length of Visible Light 13h 13m
Length of Day
12h 10m
Tomorrow will be 3m 30s shorter.
Waning Crescent, 1% of the Moon is Illuminated
Sep 23
Waning Crescent
Sep 24
New
Oct 1
First Quarter
Oct 8
Full
Oct 15
Last Quarter

Yesterday's Extremes

State Highs State Lows

Community

WunderPhotos

Upload Photos

1,755,607 photos uploaded!

Nearby

Snow Depth

Station Depth Elevation
Black Pine 0 in 7210 ft
Stringer Creek 0 in 6550 ft
Placer Basin 0 in 8830 ft
Twelvemile Creek 0 in 5600 ft
Combination 0 in 5600 ft

Earthquake Activity

City Distance Mag. Time & Date
No recent earthquake activity has been reported nearby.
Minimum magnitude displayed is 2.5.

Coastal Water Temperatures

Place Temperature
No Stations Reporting

Nearby Weather Stations